Branford, Florida
Current Conditions -  °F | °C
As of 9:55 PM on Tuesday 25 Nov 2014 (Local Time) from K24J Reporting Station
Overcast Overcast  
Wind Chill: 57°   Ceiling: 300
Heat Index: 57°   Visibility: 1.7mi
Dew Point: 57°   Wind: 7mph
Humidity: 100%   Direction: 360°N
Pressure: 29.95"   Gusts: NA
Location:  29.96°N, 82.93°W
Report Text: K24J 260255Z AUTO 36006KT 1 3/4SM OVC003 14/14 A2995 RMK AO1
Loading
Personal Weather Stations






























Interactive Weather Map New forecast layout! Learn more

10-Day Weather Forecast

Advertisements
Track Severe Weather on mobile